Pennsauken, NJ

4:38 AM EDT on September 05, 2015 (GMT -0400)
Terrace Ave | | Change Station
CLOSE
Current Station
Personal Weather Station
Location: Merchantville, NJ
Elevation: 30 ft
Nearby Weather Stations

Elev 30 ft 39.94 °N, 75.06 °W | Updated 3 seconds ago

Overcast
Overcast
70.7 °F
Feels Like 72 °F
N
0.0
Wind Variable Wind from ESE
Gusts 0.0 mph

Today
High -- | Low -- °F
--% Chance of Precip.
Yesterday
High -- | Low -- °F
Precip. -- in
6:31 AM 7:25 PM
Waning Gibbous, 51% visible
Pressure 30.21 in
Visibility 10.0 miles
Clouds Mostly Cloudy 2100 ft
Mostly Cloudy 9500 ft
Heat Index 72 °F
Dew Point 64 °F
Humidity 78%
Rainfall 0.00 in
Snow Depth Not available.
UV 0 out of 12
Pollen 9.80 out of 12
Air Quality Not available.
Flu Activity Not available.
METAR KPNE 050754Z AUTO 06006KT 10SM BKN021 BKN095 22/16 A3022 RMK AO2 SLP230 T02220161 TSNO
Pressure 30.21 in
Visibility 10.0 miles
Clouds Mostly Cloudy 2100 ft
Mostly Cloudy 9500 ft
Heat Index 72 °F
Dew Point 64 °F
Humidity 78%
Rainfall 0.00 in
Snow Depth Not available.
UV 0 out of 12
Pollen 9.80 out of 12
Air Quality Not available.
Flu Activity Not available.
METAR KPNE 050754Z AUTO 06006KT 10SM BKN021 BKN095 22/16 A3022 RMK AO2 SLP230 T02220161 TSNO

10-Day Weather Forecast

×

Almanac

Astronomy

Sep. 05, 2015 Rise Set
Actual Time
Civil Twilight
Nautical Twilight
Astronomical Twilight
Moon
Length of Visible Light
Length of Day
Tomorrow will be .
, % of the Moon is Illuminated

Today's Extremes

State Highs State Lows

Community

WunderPhotos

Upload Photos

1,852,441 photos uploaded!

WunderBlogs® & News

Nearby

Air Quality

  Air Quality AQ Index Pollutant
Not available.

Snow Depth

Station Depth Elevation

Earthquake Activity

City Distance Mag. Time & Date
Minimum magnitude displayed is 2.5.

Coastal Water Temperatures

Place Temperature

Stations

Nearby Weather Stations

Station Location Temp. Windchill Dew Point Humidity Wind Precip. Elev Updated Type